Time;durP1;ratioP1;P1;durP2;ratioP2;P2;SDS_P1;SDS_P2;PMS_P1;PMS_P2;Temp;Humidity;BMP_temperature;BMP_pressure;BME280_temperature;BME280_humidity;BME280_pressure;Samples;Min_cycle;Max_cycle;Signal;HPM_P1;HPM_P2
2022/02/21 00:01:29;;;;;;;23.65;4.05;;;;;;;;;;4455675;32;19943;-73
2022/02/21 00:03:54;;;;;;;;;;;;;;;;;;4456412;32;20061;-74
2022/02/21 00:06:20;;;;;;;19.85;3.97;;;;;;;;;;4441876;32;19969;-73
2022/02/21 00:08:45;;;;;;;;;;;;;;;;;;4440302;32;20463;-73
2022/02/21 00:11:10;;;;;;;18.40;4.22;;;;;;;;;;4447607;32;20312;-73
2022/02/21 00:13:35;;;;;;;;;;;;;;;;;;4468545;32;20025;-73
2022/02/21 00:16:00;;;;;;;27.87;4.28;;;;;;;;;;4469649;32;19940;-73
2022/02/21 00:18:25;;;;;;;21.15;3.95;;;;;;;;;;4470004;32;20073;-72
2022/02/21 00:20:52;;;;;;;;;;;;;;;;;;4469978;32;20351;-73
2022/02/21 00:23:17;;;;;;;22.30;3.12;;;;;;;;;;4470620;32;19942;-72
2022/02/21 00:25:43;;;;;;;;;;;;;;;;;;4465121;32;20037;-73
2022/02/21 00:28:08;;;;;;;15.98;4.70;;;;;;;;;;4453362;32;19948;-73
2022/02/21 00:30:33;;;;;;;;;;;;;;;;;;4456147;32;20383;-72
2022/02/21 00:32:58;;;;;;;21.48;4.35;;;;;;;;;;4454115;32;19942;-72
2022/02/21 00:35:24;;;;;;;;;;;;;;;;;;4455383;32;20084;-72
2022/02/21 00:37:49;;;;;;;15.15;3.15;;;;;;;;;;4453576;32;19996;-72
2022/02/21 00:40:14;;;;;;;;;;;;;;;;;;4454001;32;20073;-72
2022/02/21 00:42:39;;;;;;;17.80;4.32;;;;;;;;;;4453645;32;19946;-72
2022/02/21 00:45:07;;;;;;;;;;;;;;;;;;4456307;32;20139;-73
2022/02/21 00:47:32;;;;;;;;;;;;;;;;;;4469372;32;20350;-72
2022/02/21 00:49:57;;;;;;;29.10;5.82;;;;;;;;;;4469032;32;20309;-72
2022/02/21 00:52:22;;;;;;;;;;;;;;;;;;4469562;32;20029;-73
2022/02/21 00:54:48;;;;;;;13.40;4.18;;;;;;;;;;4468499;32;20048;-73
2022/02/21 00:57:13;;;;;;;;;;;;;;;;;;4470731;32;20029;-72
2022/02/21 00:59:38;;;;;;;19.35;2.67;;;;;;;;;;4453985;32;19970;-72
2022/02/21 01:02:03;;;;;;;;;;;;;;;;;;4469968;32;20087;-72
2022/02/21 01:04:28;;;;;;;17.10;2.97;;;;;;;;;;4454438;32;19935;-72
2022/02/21 01:06:55;;;;;;;;;;;;;;;;;;4470074;32;20021;-73
2022/02/21 01:09:20;;;;;;;20.95;3.47;;;;;;;;;;4468300;32;19990;-71
2022/02/21 01:11:45;;;;;;;;;;;;;;;;;;4469381;32;20452;-72
2022/02/21 01:14:10;;;;;;;17.20;4.10;;;;;;;;;;4469982;32;19936;-72
2022/02/21 01:16:35;;;;;;;;;;;;;;;;;;4468608;32;20414;-72
2022/02/21 01:19:01;;;;;;;19.08;3.72;;;;;;;;;;4469330;32;19950;-72
2022/02/21 01:21:26;;;;;;;;;;;;;;;;;;4454396;32;20120;-73
2022/02/21 01:23:52;;;;;;;20.05;4.45;;;;;;;;;;4454734;32;20309;-72
2022/02/21 01:26:18;;;;;;;;;;;;;;;;;;4469068;32;20124;-72
2022/02/21 01:28:43;;;;;;;22.50;4.45;;;;;;;;;;4454133;32;19932;-73
2022/02/21 01:31:08;;;;;;;;;;;;;;;;;;4455117;32;20020;-72
2022/02/21 01:33:33;;;;;;;21.33;4.30;;;;;;;;;;4468453;32;20004;-72
2022/02/21 01:35:58;;;;;;;;;;;;;;;;;;4468530;32;20427;-72
2022/02/21 01:41:13;;;;;;;15.80;3.67;;;;;;;;;;4439320;26;20391;-86
2022/02/21 01:43:41;;;;;;;24.42;4.25;;;;;;;;;;4378924;32;20050;-86
2022/02/21 01:46:38;;;;;;;12.88;3.12;;;;;;;;;;4365788;32;20023;-85
2022/02/21 01:49:08;;;;;;;25.10;3.75;;;;;;;;;;4343961;32;20072;-91
2022/02/21 01:51:42;;;;;;;15.30;3.20;;;;;;;;;;4379396;32;20010;-90
2022/02/21 01:54:21;;;;;;;19.05;3.78;;;;;;;;;;4364474;32;20077;-88
2022/02/21 01:56:46;;;;;;;21.02;4.72;;;;;;;;;;4364542;32;20054;-88
2022/02/21 01:59:17;;;;;;;;;;;;;;;;;;4379241;32;20023;-91
2022/02/21 02:02:19;;;;;;;12.57;3.58;;;;;;;;;;4364553;32;19938;-89
2022/02/21 02:04:59;;;;;;;23.77;3.87;;;;;;;;;;4376747;32;20076;-86
2022/02/21 02:07:24;;;;;;;15.73;4.18;;;;;;;;;;4363639;32;20091;-90
2022/02/21 02:09:52;;;;;;;;;;;;;;;;;;4379448;32;20081;-90
2022/02/21 02:12:49;;;;;;;27.80;4.20;;;;;;;;;;4365547;32;19934;-92
2022/02/21 02:15:25;;;;;;;19.23;3.67;;;;;;;;;;4352218;32;20140;-87
2022/02/21 02:18:22;;;;;;;;;;;;;;;;;;;;;
2022/02/21 02:20:54;;;;;;;11.80;2.75;;;;;;;;;;4378310;32;20027;-89
2022/02/21 02:23:19;;;;;;;7.45;2.87;;;;;;;;;;4363262;32;20094;-88
2022/02/21 02:25:50;;;;;;;;;;;;;;;;;;4364393;32;20018;-89
2022/02/21 02:28:18;;;;;;;22.10;4.28;;;;;;;;;;4378097;32;19971;-88
2022/02/21 02:30:43;;;;;;;14.60;3.97;;;;;;;;;;4364478;32;20454;-89
2022/02/21 02:33:20;;;;;;;;;;;;;;;;;;4383376;32;20043;-88
2022/02/21 02:36:00;;;;;;;20.67;4.95;;;;;;;;;;4377832;32;20008;-89
2022/02/21 02:38:29;;;;;;;21.02;3.58;;;;;;;;;;4378429;32;20044;-90
2022/02/21 02:41:01;;;;;;;16.60;3.78;;;;;;;;;;4377692;32;20030;-87
2022/02/21 02:43:32;;;;;;;13.85;3.20;;;;;;;;;;4378640;32;20045;-89
2022/02/21 02:46:28;;;;;;;;;;;;;;;;;;;;;
2022/02/21 02:48:57;;;;;;;21.70;3.58;;;;;;;;;;4391918;32;20026;-88
2022/02/21 02:51:31;;;;;;;12.77;2.65;;;;;;;;;;4391052;32;20031;-86
2022/02/21 02:53:57;;;;;;;18.30;3.85;;;;;;;;;;4391487;32;20038;-90
2022/02/21 02:56:35;;;;;;;;;;;;;;;;;;;;;
2022/02/21 02:59:09;;;;;;;20.73;3.30;;;;;;;;;;4391640;32;19942;-87
2022/02/21 03:01:35;;;;;;;15.00;3.45;;;;;;;;;;4377341;32;20031;-85
2022/02/21 03:04:05;;;;;;;;;;;;;;;;;;4377536;32;20058;-85
2022/02/21 03:06:40;;;;;;;15.90;3.37;;;;;;;;;;4391069;32;19937;-87
2022/02/21 03:09:32;;;;;;;16.52;5.15;;;;;;;;;;4391122;32;20098;-86
2022/02/21 03:11:59;;;;;;;16.52;2.65;;;;;;;;;;4391271;32;20019;-91
2022/02/21 03:14:39;;;;;;;20.60;3.97;;;;;;;;;;4377256;32;20045;-88
2022/02/21 03:17:24;;;;;;;25.75;5.32;;;;;;;;;;4376055;32;20048;-87
2022/02/21 03:20:04;;;;;;;18.23;4.28;;;;;;;;;;4377603;32;20030;-87
2022/02/21 03:22:29;;;;;;;26.87;5.03;;;;;;;;;;4391220;32;20027;-89
2022/02/21 03:24:54;;;;;;;;;;;;;;;;;;4391517;32;20022;-88
2022/02/21 03:27:23;;;;;;;19.40;4.50;;;;;;;;;;4391234;32;19933;-87
2022/02/21 03:30:03;;;;;;;19.65;4.22;;;;;;;;;;4377939;32;20134;-88
2022/02/21 03:32:31;;;;;;;17.77;4.43;;;;;;;;;;4391233;32;20046;-87
2022/02/21 03:36:03;;;;;;;15.02;4.18;;;;;;;;;;4376760;32;20015;-88
2022/02/21 03:41:55;;;;;;;26.42;4.47;;;;;;;;;;4378028;32;20081;-83
2022/02/21 03:43:55;;;;;;;27.98;5.75;;;;;;;;;;4356500;33;20537;-86
2022/02/21 03:46:23;;;;;;;15.63;3.87;;;;;;;;;;4360976;33;20353;-89
2022/02/21 03:48:48;;;;;;;17.48;4.28;;;;;;;;;;4359620;33;20051;-87
2022/02/21 03:51:13;;;;;;;;;;;;;;;;;;4361537;33;20062;-90
2022/02/21 03:53:39;;;;;;;10.20;3.10;;;;;;;;;;4359496;33;19958;-90
2022/02/21 03:56:06;;;;;;;;;;;;;;;;;;4361166;33;20120;-89
2022/02/21 03:58:32;;;;;;;17.42;3.25;;;;;;;;;;4360920;33;19954;-91
2022/02/21 04:00:57;;;;;;;;;;;;;;;;;;4359736;33;20202;-89
2022/02/21 04:03:22;;;;;;;23.73;3.15;;;;;;;;;;4359559;33;19958;-90
2022/02/21 04:05:47;;;;;;;;;;;;;;;;;;4359519;33;20078;-89
2022/02/21 04:08:38;;;;;;;20.67;2.83;;;;;;;;;;4360397;33;19990;-88
2022/02/21 04:11:04;;;;;;;16.33;2.95;;;;;;;;;;4359916;33;20112;-89
2022/02/21 04:13:29;;;;;;;;;;;;;;;;;;4359914;33;20046;-91
2022/02/21 04:16:00;;;;;;;14.25;3.87;;;;;;;;;;4359260;33;19943;-89
2022/02/21 04:19:04;;;;;;;12.68;3.08;;;;;;;;;;4360565;33;20031;-90
2022/02/21 04:21:45;;;;;;;13.90;3.33;;;;;;;;;;4352407;33;20027;-89
2022/02/21 04:24:22;;;;;;;13.55;3.20;;;;;;;;;;4361262;33;20081;-89
2022/02/21 04:27:03;;;;;;;;;;;;;;;;;;;;;
2022/02/21 04:29:29;;;;;;;18.12;3.53;;;;;;;;;;4361086;33;20079;-90
2022/02/21 04:31:57;;;;;;;;;;;;;;;;;;4360260;33;20102;-89
2022/02/21 04:34:31;;;;;;;14.15;3.15;;;;;;;;;;4359297;33;19957;-88
2022/02/21 04:36:59;;;;;;;18.98;2.87;;;;;;;;;;4361695;33;20097;-92
2022/02/21 04:39:24;;;;;;;14.55;3.42;;;;;;;;;;4369149;33;20011;-90
2022/02/21 04:41:50;;;;;;;;;;;;;;;;;;4381930;32;20113;-90
2022/02/21 04:44:21;;;;;;;11.90;3.05;;;;;;;;;;4391197;32;19968;-89
2022/02/21 04:46:48;;;;;;;18.67;4.00;;;;;;;;;;4393528;32;20119;-87
2022/02/21 04:49:43;;;;;;;19.67;4.47;;;;;;;;;;4379249;32;20057;-89
2022/02/21 04:52:08;;;;;;;16.12;2.90;;;;;;;;;;4375238;32;20380;-88
2022/02/21 04:54:34;;;;;;;;;;;;;;;;;;4379586;32;20069;-90
2022/02/21 04:56:59;;;;;;;15.05;3.85;;;;;;;;;;4378828;32;19942;-89
2022/02/21 04:59:30;;;;;;;;;;;;;;;;;;4378993;32;20053;-90
2022/02/21 05:01:59;;;;;;;23.00;3.62;;;;;;;;;;4377523;32;20340;-87
2022/02/21 05:04:57;;;;;;;19.33;4.22;;;;;;;;;;4377431;32;20027;-89
2022/02/21 05:07:22;;;;;;;;;;;;;;;;;;4378065;32;20038;-89
2022/02/21 05:09:47;;;;;;;16.23;3.97;;;;;;;;;;4378779;32;19973;-91
2022/02/21 05:12:18;;;;;;;;;;;;;;;;;;4380710;32;20023;-91
2022/02/21 05:14:47;;;;;;;17.35;3.83;;;;;;;;;;4381896;32;19945;-89
2022/02/21 05:17:15;;;;;;;18.12;4.60;;;;;;;;;;4385024;32;20345;-89
2022/02/21 05:19:43;;;;;;;24.92;3.85;;;;;;;;;;4386216;32;20038;-88
2022/02/21 05:22:11;;;;;;;15.82;3.55;;;;;;;;;;4384403;32;20058;-88
2022/02/21 05:24:36;;;;;;;24.37;3.97;;;;;;;;;;4382786;32;20022;-89
2022/02/21 05:27:01;;;;;;;;;;;;;;;;;;4382365;32;20049;-89
2022/02/21 05:29:30;;;;;;;13.90;3.67;;;;;;;;;;4382492;32;19942;-89
2022/02/21 05:31:55;;;;;;;16.90;3.30;;;;;;;;;;4380324;32;20081;-91
2022/02/21 05:34:23;;;;;;;;;;;;;;;;;;4380968;32;20027;-88
2022/02/21 05:36:58;;;;;;;17.02;4.22;;;;;;;;;;4379670;32;19965;-89
2022/02/21 05:39:23;;;;;;;13.80;3.47;;;;;;;;;;4377174;32;20416;-89
2022/02/21 05:41:57;;;;;;;;;;;;;;;;;;4386136;32;20060;-89
2022/02/21 05:44:26;;;;;;;21.12;3.30;;;;;;;;;;4380422;32;19946;-88
2022/02/21 05:46:51;;;;;;;17.62;3.92;;;;;;;;;;4379991;32;20022;-87
2022/02/21 05:49:19;;;;;;;;;;;;;;;;;;4394730;32;20325;-90
2022/02/21 05:51:45;;;;;;;15.95;3.25;;;;;;;;;;4393962;32;19997;-86
2022/02/21 05:54:10;;;;;;;;;;;;;;;;;;4379626;32;20014;-88
2022/02/21 05:56:49;;;;;;;18.73;3.35;;;;;;;;;;4379147;32;19972;-89
2022/02/21 05:59:14;;;;;;;16.37;3.22;;;;;;;;;;4393031;32;20119;-87
2022/02/21 06:01:42;;;;;;;;;;;;;;;;;;4392575;32;20120;-86
2022/02/21 06:04:10;;;;;;;19.33;4.35;;;;;;;;;;4378518;32;19930;-90
2022/02/21 06:06:42;;;;;;;15.25;4.07;;;;;;;;;;4378551;32;20045;-88
2022/02/21 06:09:09;;;;;;;18.75;3.50;;;;;;;;;;4394538;32;20031;-87
2022/02/21 06:11:45;;;;;;;18.52;3.72;;;;;;;;;;4391656;32;20086;-84
2022/02/21 06:14:28;;;;;;;14.32;3.12;;;;;;;;;;4392655;32;20108;-85
2022/02/21 06:16:57;;;;;;;21.45;4.62;;;;;;;;;;4391973;32;20053;-85
2022/02/21 06:19:28;;;;;;;20.30;3.50;;;;;;;;;;4391501;32;20030;-87
2022/02/21 06:22:06;;;;;;;20.35;4.20;;;;;;;;;;4392070;32;20042;-86
2022/02/21 06:24:31;;;;;;;17.15;3.22;;;;;;;;;;4392255;32;20076;-84
2022/02/21 06:26:56;;;;;;;;;;;;;;;;;;4378010;32;20483;-84
2022/02/21 06:29:25;;;;;;;20.30;3.40;;;;;;;;;;4391530;32;20040;-84
2022/02/21 06:31:55;;;;;;;17.42;3.50;;;;;;;;;;4391994;32;20031;-87
2022/02/21 06:34:32;;;;;;;19.83;4.28;;;;;;;;;;4378282;32;20019;-85
2022/02/21 06:37:06;;;;;;;17.58;4.45;;;;;;;;;;4391331;32;20023;-84
2022/02/21 06:39:40;;;;;;;14.18;3.28;;;;;;;;;;4378314;32;20031;-85
2022/02/21 06:42:06;;;;;;;18.27;4.20;;;;;;;;;;4377404;32;20395;-85
2022/02/21 06:44:41;;;;;;;;;;;;;;;;;;;;;
2022/02/21 06:47:13;;;;;;;18.90;3.97;;;;;;;;;;4391701;32;20311;-84
2022/02/21 06:50:06;;;;;;;19.17;4.25;;;;;;;;;;4391037;32;20402;-83
2022/02/21 06:52:41;;;;;;;14.45;3.72;;;;;;;;;;4376549;32;20075;-81
2022/02/21 06:55:11;;;;;;;19.90;2.97;;;;;;;;;;4362497;32;20031;-83
2022/02/21 06:57:53;;;;;;;25.95;4.97;;;;;;;;;;4391724;32;20085;-81
2022/02/21 07:00:42;;;;;;;20.33;4.03;;;;;;;;;;4401029;32;20062;-82
2022/02/21 07:03:08;;;;;;;18.50;3.97;;;;;;;;;;4379531;32;20089;-81
2022/02/21 07:05:45;;;;;;;;;;;;;;;;;;4394080;32;20031;-82
2022/02/21 07:08:13;;;;;;;23.60;4.47;;;;;;;;;;4376643;32;20249;-83
2022/02/21 07:10:43;;;;;;;19.50;4.85;;;;;;;;;;4394168;32;20057;-82
2022/02/21 07:13:09;;;;;;;17.00;3.95;;;;;;;;;;4375487;32;20055;-83
2022/02/21 07:16:20;;;;;;;;;;;;;;;;;;4367628;32;20086;-81
2022/02/21 07:18:56;;;;;;;;;;;;;;;;;;;;;
2022/02/21 07:21:26;;;;;;;23.85;3.75;;;;;;;;;;4377727;32;20387;-83
2022/02/21 07:24:12;;;;;;;24.92;3.97;;;;;;;;;;4362539;32;20418;-83
2022/02/21 07:26:46;;;;;;;19.25;3.75;;;;;;;;;;4376544;32;20053;-83
2022/02/21 07:29:21;;;;;;;17.48;4.07;;;;;;;;;;4361610;32;20076;-83
2022/02/21 07:31:52;;;;;;;18.55;4.75;;;;;;;;;;4375276;32;20100;-82
2022/02/21 07:34:18;;;;;;;20.90;3.87;;;;;;;;;;4361898;32;20023;-80
2022/02/21 07:36:53;;;;;;;;;;;;;;;;;;4359095;32;20130;-83
2022/02/21 07:39:39;;;;;;;28.90;4.57;;;;;;;;;;4361355;32;19930;-82
2022/02/21 07:44:49;;;;;;;23.27;4.28;;;;;;;;;;4370807;32;20054;-83
2022/02/21 07:50:31;;;;;;;;;;;;;;;;;;;;;
2022/02/21 07:56:08;;;;;;;21.67;4.55;;;;;;;;;;4314127;33;20090;-86
2022/02/21 07:58:53;;;;;;;20.58;4.47;;;;;;;;;;4312877;33;20392;-84
2022/02/21 08:01:21;;;;;;;22.25;6.15;;;;;;;;;;4315943;33;20444;-83
2022/02/21 08:03:54;;;;;;;21.90;4.05;;;;;;;;;;4313734;33;20071;-83
2022/02/21 08:06:32;;;;;;;19.33;4.03;;;;;;;;;;4314294;33;20080;-82
2022/02/21 08:09:08;;;;;;;28.95;4.85;;;;;;;;;;4388907;32;20022;-80
2022/02/21 08:11:34;;;;;;;19.23;3.75;;;;;;;;;;4375811;32;20408;-80
2022/02/21 08:13:59;;;;;;;;;;;;;;;;;;4390308;32;20049;-78
2022/02/21 08:16:34;;;;;;;21.00;5.47;;;;;;;;;;4376496;32;20369;-85
2022/02/21 08:19:03;;;;;;;15.57;3.72;;;;;;;;;;4384442;32;20424;-87
2022/02/21 08:21:31;;;;;;;36.42;5.40;;;;;;;;;;4376916;32;20511;-86
2022/02/21 08:23:59;;;;;;;25.17;5.32;;;;;;;;;;4364542;32;20081;-84
2022/02/21 08:26:31;;;;;;;27.85;5.53;;;;;;;;;;4377998;32;20031;-87
2022/02/21 08:29:49;;;;;;;24.00;4.90;;;;;;;;;;4364945;32;20053;-85
2022/02/21 08:31:58;;;;;;;29.60;5.75;;;;;;;;;;4373072;32;20043;-88
2022/02/21 08:34:24;;;;;;;44.28;5.62;;;;;;;;;;4368361;32;20053;-85
2022/02/21 08:36:55;;;;;;;24.10;5.03;;;;;;;;;;4368310;32;20073;-89
2022/02/21 08:39:23;;;;;;;28.38;6.05;;;;;;;;;;4368165;32;20031;-87
2022/02/21 08:44:57;;;;;;;22.75;5.30;;;;;;;;;;4349647;33;20086;-84
2022/02/21 08:47:25;;;;;;;37.47;6.15;;;;;;;;;;4347976;33;20439;-85
2022/02/21 08:49:57;;;;;;;31.33;5.07;;;;;;;;;;4348918;33;20078;-87
2022/02/21 08:52:25;;;;;;;34.28;6.03;;;;;;;;;;4347867;33;20074;-88
2022/02/21 08:54:53;;;;;;;44.55;7.60;;;;;;;;;;4348648;33;20075;-86
2022/02/21 08:57:42;;;;;;;38.65;6.40;;;;;;;;;;4348733;33;20097;-85
2022/02/21 09:00:14;;;;;;;31.83;6.25;;;;;;;;;;4347181;33;20031;-86
2022/02/21 09:02:49;;;;;;;27.08;5.95;;;;;;;;;;4347259;33;20455;-85
2022/02/21 09:05:18;;;;;;;43.60;6.47;;;;;;;;;;4347092;33;20023;-85
2022/02/21 09:07:51;;;;;;;35.05;6.22;;;;;;;;;;4346663;33;20024;-85
2022/02/21 09:10:19;;;;;;;41.37;6.57;;;;;;;;;;4348489;33;20067;-86
2022/02/21 09:12:55;;;;;;;26.75;5.05;;;;;;;;;;4347620;33;20147;-84
2022/02/21 09:15:31;;;;;;;27.90;5.90;;;;;;;;;;4346875;33;20038;-86
2022/02/21 09:18:02;;;;;;;25.67;5.05;;;;;;;;;;4346738;33;20038;-88
2022/02/21 09:20:28;;;;;;;43.38;7.45;;;;;;;;;;4350990;33;20360;-89
2022/02/21 09:23:02;;;;;;;;;;;;;;;;;;4362027;32;20015;-87
2022/02/21 09:25:55;;;;;;;24.42;5.07;;;;;;;;;;4361708;33;20350;-88
2022/02/21 09:28:59;;;;;;;36.72;7.37;;;;;;;;;;4360120;32;20015;-90
2022/02/21 09:31:27;;;;;;;37.22;6.68;;;;;;;;;;4304375;33;20020;-87
2022/02/21 09:33:52;;;;;;;31.55;6.93;;;;;;;;;;4353964;32;20424;-92
2022/02/21 09:36:18;;;;;;;;;;;;;;;;;;4361994;33;20154;-88
2022/02/21 09:38:52;;;;;;;41.35;7.97;;;;;;;;;;4361142;32;19942;-89
2022/02/21 09:41:19;;;;;;;32.90;7.62;;;;;;;;;;4361611;32;20057;-88
2022/02/21 09:43:44;;;;;;;45.47;7.70;;;;;;;;;;4376345;32;20363;-86
2022/02/21 09:46:12;;;;;;;;;;;;;;;;;;4376281;32;20073;-86
2022/02/21 09:48:39;;;;;;;42.42;7.72;;;;;;;;;;4392178;32;19949;-87
2022/02/21 09:51:05;;;;;;;40.45;9.43;;;;;;;;;;4378660;32;20015;-85
2022/02/21 09:53:32;;;;;;;;;;;;;;;;;;4392062;32;20019;-87
2022/02/21 09:55:57;;;;;;;;;;;;;;;;;;4378814;32;19991;-86
2022/02/21 09:58:23;;;;;;;38.92;6.43;;;;;;;;;;4384522;32;19938;-86
2022/02/21 10:00:49;;;;;;;;;;;;;;;;;;4377856;32;20048;-86
2022/02/21 10:03:37;;;;;;;32.85;6.18;;;;;;;;;;4368236;32;20303;-85
2022/02/21 10:06:15;;;;;;;36.20;6.43;;;;;;;;;;4381516;32;20027;-85
2022/02/21 10:09:00;;;;;;;46.13;7.82;;;;;;;;;;4378709;32;20019;-82
2022/02/21 10:11:29;;;;;;;40.17;7.57;;;;;;;;;;4363467;32;19999;-86
2022/02/21 10:13:56;;;;;;;29.63;7.62;;;;;;;;;;4376855;32;20026;-87
2022/02/21 10:16:24;;;;;;;40.85;7.18;;;;;;;;;;4377364;32;20027;-86
2022/02/21 10:18:49;;;;;;;33.53;7.60;;;;;;;;;;4362786;32;20023;-86
2022/02/21 10:21:18;;;;;;;;;;;;;;;;;;4371096;32;20368;-87
2022/02/21 10:23:46;;;;;;;44.92;7.70;;;;;;;;;;4391505;32;19980;-86
2022/02/21 10:26:11;;;;;;;38.88;7.28;;;;;;;;;;4392001;32;20023;-88
2022/02/21 10:28:40;;;;;;;;;;;;;;;;;;4391805;32;20050;-89
2022/02/21 10:31:19;;;;;;;39.28;6.95;;;;;;;;;;4377334;32;19949;-87
2022/02/21 10:34:10;;;;;;;45.17;6.50;;;;;;;;;;4377362;32;20072;-87
2022/02/21 10:36:37;;;;;;;48.75;8.00;;;;;;;;;;4395037;32;20064;-89
2022/02/21 10:39:25;;;;;;;40.38;7.82;;;;;;;;;;4382690;32;20423;-85
2022/02/21 10:41:52;;;;;;;41.53;7.68;;;;;;;;;;4371517;32;20011;-87
2022/02/21 10:44:23;;;;;;;32.42;7.43;;;;;;;;;;4368862;32;20372;-88
2022/02/21 10:47:24;;;;;;;35.58;6.78;;;;;;;;;;4376818;32;20134;-88
2022/02/21 10:49:54;;;;;;;46.72;8.07;;;;;;;;;;4377353;32;20045;-86
2022/02/21 10:52:39;;;;;;;49.60;7.60;;;;;;;;;;4375313;32;20071;-85
2022/02/21 10:55:20;;;;;;;25.92;5.03;;;;;;;;;;4375048;32;20400;-88
2022/02/21 10:58:23;;;;;;;33.50;7.68;;;;;;;;;;4376383;32;20051;-85
2022/02/21 11:01:14;;;;;;;36.78;6.53;;;;;;;;;;4364597;32;20023;-87
2022/02/21 11:03:40;;;;;;;47.00;7.45;;;;;;;;;;4358115;32;20474;-84
2022/02/21 11:06:08;;;;;;;35.80;6.37;;;;;;;;;;4360360;32;20008;-85
2022/02/21 11:08:57;;;;;;;41.10;8.40;;;;;;;;;;4360336;32;20057;-85
2022/02/21 11:11:42;;;;;;;34.25;6.75;;;;;;;;;;4361404;32;20049;-84
2022/02/21 11:14:17;;;;;;;27.58;6.05;;;;;;;;;;4361186;32;20389;-83
2022/02/21 11:16:42;;;;;;;34.00;8.02;;;;;;;;;;4359478;32;20019;-84
2022/02/21 11:19:07;;;;;;;;;;;;;;;;;;4363963;32;20049;-84
2022/02/21 11:21:46;;;;;;;32.75;6.95;;;;;;;;;;4370072;32;20025;-82
2022/02/21 11:24:13;;;;;;;30.73;6.70;;;;;;;;;;4358483;32;20784;-82
2022/02/21 11:26:41;;;;;;;27.90;6.62;;;;;;;;;;4363432;32;20023;-83
2022/02/21 11:29:26;;;;;;;34.40;6.80;;;;;;;;;;4360945;32;20015;-89
2022/02/21 11:31:51;;;;;;;38.97;6.50;;;;;;;;;;4360143;32;20115;-86
2022/02/21 11:34:19;;;;;;;;;;;;;;;;;;4374166;32;20349;-87
2022/02/21 11:36:57;;;;;;;34.53;6.32;;;;;;;;;;4373772;32;19938;-83
2022/02/21 11:39:26;;;;;;;43.95;8.32;;;;;;;;;;4374379;32;20050;-84
2022/02/21 11:42:07;;;;;;;30.70;6.78;;;;;;;;;;4361128;32;20440;-84
2022/02/21 11:44:49;;;;;;;28.42;6.70;;;;;;;;;;4360359;32;20083;-82
2022/02/21 11:47:33;;;;;;;32.45;6.03;;;;;;;;;;4374244;32;20062;-83
2022/02/21 11:50:08;;;;;;;34.13;6.28;;;;;;;;;;4372944;32;20035;-87
2022/02/21 11:52:38;;;;;;;27.20;5.90;;;;;;;;;;4364371;32;20016;-87
2022/02/21 11:55:35;;;;;;;39.33;7.53;;;;;;;;;;4361628;32;20069;-86
2022/02/21 11:58:28;;;;;;;27.40;5.40;;;;;;;;;;4346688;33;20042;-88
2022/02/21 12:00:54;;;;;;;40.33;6.90;;;;;;;;;;4357749;33;20018;-86
2022/02/21 12:03:19;;;;;;;;;;;;;;;;;;4365307;32;20080;-87
2022/02/21 12:05:51;;;;;;;31.92;7.75;;;;;;;;;;4379936;32;19937;-85
2022/02/21 12:08:17;;;;;;;37.75;7.00;;;;;;;;;;4379517;32;20494;-88
2022/02/21 12:17:17;;;;;;;36.58;6.10;;;;;;;;;;4331593;33;20082;-85
2022/02/21 12:19:56;;;;;;;27.25;5.25;;;;;;;;;;4331732;33;20031;-86
2022/02/21 12:22:46;;;;;;;20.83;4.53;;;;;;;;;;4331945;33;20040;-85
2022/02/21 12:25:31;;;;;;;41.95;5.93;;;;;;;;;;4359316;32;20065;-87
2022/02/21 12:28:23;;;;;;;33.95;7.37;;;;;;;;;;4393534;32;20031;-86
2022/02/21 12:31:09;;;;;;;33.10;6.25;;;;;;;;;;4393463;32;20054;-87
2022/02/21 12:33:40;;;;;;;23.65;4.47;;;;;;;;;;4382264;32;20087;-82
2022/02/21 12:39:00;;;;;;;30.92;6.25;;;;;;;;;;4374254;32;20100;-90
2022/02/21 12:41:25;;;;;;;;;;;;;;;;;;4380384;32;20019;-83
2022/02/21 12:44:26;;;;;;;19.10;4.47;;;;;;;;;;4378996;32;19972;-85
2022/02/21 12:47:16;;;;;;;23.48;6.00;;;;;;;;;;4389891;32;20087;-87
2022/02/21 12:50:00;;;;;;;33.55;6.10;;;;;;;;;;4359138;32;20050;-89
2022/02/21 12:52:36;;;;;;;34.20;5.12;;;;;;;;;;4379337;32;20006;-83
2022/02/21 12:55:07;;;;;;;31.15;6.60;;;;;;;;;;4391085;32;20479;-90
2022/02/21 12:57:39;;;;;;;31.35;6.40;;;;;;;;;;4393229;32;20428;-90
2022/02/21 13:00:24;;;;;;;;;;;;;;;;;;;;;
2022/02/21 13:03:23;;;;;;;;;;;;;;;;;;;;;
2022/02/21 13:06:01;;;;;;;49.83;8.35;;;;;;;;;;4392931;32;20041;-88
2022/02/21 13:08:44;;;;;;;23.05;5.12;;;;;;;;;;4393275;32;20026;-85
2022/02/21 13:11:29;;;;;;;26.30;5.28;;;;;;;;;;4393065;32;20048;-88
2022/02/21 13:14:08;;;;;;;15.45;3.25;;;;;;;;;;4379405;32;20015;-86
2022/02/21 13:16:54;;;;;;;31.48;5.03;;;;;;;;;;4379141;32;20041;-88
2022/02/21 13:19:51;;;;;;;;;;;;;;;;;;;;;
2022/02/21 13:22:18;;;;;;;27.85;6.10;;;;;;;;;;4324196;33;20036;-85
2022/02/21 13:24:56;;;;;;;29.55;5.07;;;;;;;;;;4369155;32;20056;-88
2022/02/21 13:27:51;;;;;;;27.90;4.57;;;;;;;;;;4389252;32;20040;-85
2022/02/21 13:30:23;;;;;;;19.83;3.78;;;;;;;;;;4325582;33;20028;-86
2022/02/21 13:33:07;;;;;;;18.52;3.40;;;;;;;;;;4330543;33;20405;-85
2022/02/21 13:35:38;;;;;;;21.17;4.72;;;;;;;;;;4389813;32;20022;-86
2022/02/21 13:38:28;;;;;;;10.10;2.80;;;;;;;;;;4377924;32;20014;-86
2022/02/21 13:41:02;;;;;;;34.25;4.47;;;;;;;;;;4378787;32;20038;-85
2022/02/21 13:43:48;;;;;;;15.00;3.78;;;;;;;;;;4377581;32;20713;-82
2022/02/21 13:46:50;;;;;;;21.62;4.05;;;;;;;;;;4388522;32;20052;-88
2022/02/21 13:49:37;;;;;;;29.35;4.30;;;;;;;;;;4377987;32;20041;-86
2022/02/21 13:52:12;;;;;;;24.42;5.55;;;;;;;;;;4378112;32;20404;-87
2022/02/21 13:54:39;;;;;;;16.02;3.95;;;;;;;;;;4392340;32;20033;-86
2022/02/21 13:57:17;;;;;;;22.10;4.12;;;;;;;;;;4377989;32;20022;-84
2022/02/21 13:59:48;;;;;;;12.82;4.65;;;;;;;;;;4391956;32;20053;-87
2022/02/21 14:05:13;;;;;;;12.95;2.67;;;;;;;;;;4391726;32;20383;-85
2022/02/21 14:07:41;;;;;;;;;;;;;;;;;;4377897;32;20058;-86
2022/02/21 14:10:23;;;;;;;;;;;;;;;;;;;;;
2022/02/21 14:13:18;;;;;;;16.20;3.58;;;;;;;;;;4377044;32;20070;-88
2022/02/21 14:16:11;;;;;;;21.20;4.87;;;;;;;;;;4336716;32;20055;-86
2022/02/21 14:18:40;;;;;;;15.15;3.05;;;;;;;;;;4376517;32;20072;-87
2022/02/21 14:21:12;;;;;;;18.58;3.97;;;;;;;;;;4391212;32;20132;-86
2022/02/21 14:23:51;;;;;;;11.35;2.70;;;;;;;;;;4377290;32;20023;-85
2022/02/21 14:26:19;;;;;;;13.15;3.30;;;;;;;;;;4378034;32;20053;-85
2022/02/21 14:28:45;;;;;;;20.17;3.85;;;;;;;;;;4377412;32;20422;-88
2022/02/21 14:31:15;;;;;;;;;;;;;;;;;;4392098;32;20038;-88
2022/02/21 14:34:01;;;;;;;19.37;3.33;;;;;;;;;;4391323;32;19933;-86
2022/02/21 14:36:26;;;;;;;25.17;3.92;;;;;;;;;;4378023;32;20034;-86
2022/02/21 14:38:55;;;;;;;;;;;;;;;;;;4377291;32;20061;-87
2022/02/21 14:41:20;;;;;;;28.15;4.35;;;;;;;;;;4391190;32;19960;-87
2022/02/21 14:43:48;;;;;;;;;;;;;;;;;;4391481;32;20078;-87
2022/02/21 14:49:23;;;;;;;17.90;2.95;;;;;;;;;;4344277;33;20075;-83
2022/02/21 14:51:51;;;;;;;12.75;2.95;;;;;;;;;;4368404;32;20061;-91
2022/02/21 14:54:28;;;;;;;16.10;3.87;;;;;;;;;;4378139;32;20084;-90
2022/02/21 14:56:59;;;;;;;18.55;3.10;;;;;;;;;;4377745;32;20046;-87
2022/02/21 14:59:55;;;;;;;;;;;;;;;;;;;;;
2022/02/21 15:05:08;;;;;;;19.20;3.83;;;;;;;;;;4387440;32;20054;-89
2022/02/21 15:10:42;;;;;;;12.00;3.53;;;;;;;;;;4389630;32;20057;-91
2022/02/21 15:13:23;;;;;;;16.55;3.37;;;;;;;;;;4378089;32;20038;-91
2022/02/21 15:16:01;;;;;;;;;;;;;;;;;;;;;
2022/02/21 15:18:47;;;;;;;27.13;4.22;;;;;;;;;;4391978;32;20035;-92
2022/02/21 15:21:32;;;;;;;;;;;;;;;;;;;;;
2022/02/21 15:24:09;;;;;;;19.50;3.00;;;;;;;;;;4376018;32;20061;-90
2022/02/21 15:26:35;;;;;;;;;;;;;;;;;;4379518;32;20057;-89
2022/02/21 15:29:01;;;;;;;18.58;4.07;;;;;;;;;;4391739;32;19966;-90
2022/02/21 15:31:32;;;;;;;21.08;4.10;;;;;;;;;;4377755;32;20052;-91
2022/02/21 15:37:20;;;;;;;19.87;3.67;;;;;;;;;;4381277;32;20030;-90
2022/02/21 15:46:04;;;;;;;27.33;5.18;;;;;;;;;;4366785;32;20462;-92
2022/02/21 15:49:09;;;;;;;35.03;5.03;;;;;;;;;;4377984;32;20066;-90
2022/02/21 15:51:44;;;;;;;36.38;5.60;;;;;;;;;;4391183;32;20054;-92
2022/02/21 15:54:13;;;;;;;31.02;5.47;;;;;;;;;;4378514;32;20026;-91
2022/02/21 15:56:44;;;;;;;30.33;5.03;;;;;;;;;;4378438;32;20031;-93
2022/02/21 15:59:10;;;;;;;22.13;3.72;;;;;;;;;;4378152;32;20062;-91
2022/02/21 16:01:44;;;;;;;;;;;;;;;;;;4379307;32;20026;-90
2022/02/21 16:07:09;;;;;;;31.95;5.95;;;;;;;;;;4381267;32;20035;-91
2022/02/21 16:09:50;;;;;;;;;;;;;;;;;;;;;
2022/02/21 16:12:40;;;;;;;35.42;6.12;;;;;;;;;;4392447;32;20031;-92
2022/02/21 16:21:58;;;;;;;;;;;;;;;;;;;;;
2022/02/21 16:24:29;;;;;;;32.90;5.82;;;;;;;;;;4391789;32;20064;-91
2022/02/21 16:27:03;;;;;;;33.95;6.78;;;;;;;;;;4378782;32;20048;-90
2022/02/21 16:29:39;;;;;;;35.80;6.15;;;;;;;;;;4378283;32;20084;-89
2022/02/21 16:32:11;;;;;;;38.20;5.95;;;;;;;;;;4376823;32;20065;-89
2022/02/21 16:34:55;;;;;;;;;;;;;;;;;;;;;
2022/02/21 16:37:23;;;;;;;36.90;6.57;;;;;;;;;;4390806;32;20053;-89
2022/02/21 16:39:55;;;;;;;30.58;6.55;;;;;;;;;;4390418;32;20058;-91
2022/02/21 16:42:20;;;;;;;35.20;7.32;;;;;;;;;;4391524;32;20031;-88
2022/02/21 16:44:46;;;;;;;;;;;;;;;;;;4379036;32;20082;-90